createdAt,value
2018-12-17T00:00:29.379Z,100378.97
2018-12-17T00:02:57.068Z,100383.59
2018-12-17T00:05:27.430Z,100380.28
2018-12-17T00:07:55.077Z,100383.30
2018-12-17T00:10:22.900Z,100382.94
2018-12-17T00:12:50.821Z,100385.53
2018-12-17T00:15:18.325Z,100388.48
2018-12-17T00:17:46.001Z,100378.03
2018-12-17T00:20:13.658Z,100381.44
2018-12-17T00:22:41.193Z,100386.05
2018-12-17T00:25:09.441Z,100385.67
2018-12-17T00:27:36.918Z,100383.62
2018-12-17T00:30:06.079Z,100386.60
2018-12-17T00:32:33.802Z,100388.70
2018-12-17T00:35:01.322Z,100396.27
2018-12-17T00:37:28.788Z,100397.98
2018-12-17T00:39:56.845Z,100392.15
2018-12-17T00:42:24.311Z,100387.11
2018-12-17T00:44:51.805Z,100390.09
2018-12-17T00:47:19.281Z,100394.72
2018-12-17T00:49:47.445Z,100387.61
2018-12-17T00:52:14.925Z,100386.78
2018-12-17T00:54:43.295Z,100395.64
2018-12-17T00:57:10.841Z,100394.42
2018-12-17T00:59:38.809Z,100393.45
2018-12-17T01:02:06.265Z,100398.50
2018-12-17T01:04:33.721Z,100403.62
2018-12-17T01:07:01.656Z,100402.36
2018-12-17T01:09:29.288Z,100409.03
2018-12-17T01:11:57.086Z,100408.58
2018-12-17T01:14:25.079Z,100411.48
2018-12-17T01:16:52.581Z,100405.17
2018-12-17T01:19:20.093Z,100407.14
2018-12-17T01:21:47.817Z,100406.34
2018-12-17T01:24:16.169Z,100405.12
2018-12-17T01:26:43.685Z,100409.38
2018-12-17T01:29:11.332Z,100408.95
2018-12-17T01:31:38.790Z,100403.78
2018-12-17T01:34:06.299Z,100407.46
2018-12-17T01:36:33.899Z,100410.07
2018-12-17T01:39:01.379Z,100417.22
2018-12-17T01:41:28.895Z,100418.02
2018-12-17T01:44:03.390Z,100418.00
2018-12-17T01:46:30.832Z,100420.53
2018-12-17T01:48:58.377Z,100427.16
2018-12-17T01:51:25.879Z,100430.15
2018-12-17T01:54:00.826Z,100434.02
2018-12-17T01:56:28.364Z,100440.32
2018-12-17T01:58:56.203Z,100437.80
2018-12-17T02:01:23.773Z,100441.48
2018-12-17T02:03:51.301Z,100436.81
2018-12-17T02:06:18.828Z,100433.50
2018-12-17T02:08:46.775Z,100430.52
2018-12-17T02:11:14.412Z,100432.20
2018-12-17T02:13:42.773Z,100432.11
2018-12-17T02:16:10.257Z,100436.86
2018-12-17T02:18:37.720Z,100433.45
2018-12-17T02:21:05.191Z,100432.33
2018-12-17T02:23:33.314Z,100433.59
2018-12-17T02:26:00.807Z,100435.66
2018-12-17T02:28:28.280Z,100431.02
2018-12-17T02:30:55.757Z,100431.36
2018-12-17T02:33:23.273Z,100436.81
2018-12-17T02:35:51.557Z,100440.23
2018-12-17T02:38:19.152Z,100437.70
2018-12-17T02:40:46.659Z,100438.13
2018-12-17T02:43:14.357Z,100439.84
2018-12-17T02:45:41.814Z,100438.91
2018-12-17T02:48:09.326Z,100429.64
2018-12-17T02:50:36.797Z,100437.19
2018-12-17T02:53:04.335Z,100438.88
2018-12-17T02:55:31.804Z,100444.60
2018-12-17T02:57:59.268Z,100448.15
2018-12-17T03:00:26.745Z,100453.56
2018-12-17T03:02:54.229Z,100450.54
2018-12-17T03:05:21.737Z,100453.05
2018-12-17T03:07:49.216Z,100450.91
2018-12-17T03:10:17.500Z,100455.16
2018-12-17T03:12:44.975Z,100457.63
2018-12-17T03:15:12.498Z,100467.23
2018-12-17T03:17:40.002Z,100469.44
2018-12-17T03:20:08.019Z,100472.64
2018-12-17T03:22:35.484Z,100462.38
2018-12-17T03:25:04.508Z,100463.69
2018-12-17T03:27:32.081Z,100466.56
2018-12-17T03:29:59.589Z,100464.88
2018-12-17T03:32:27.060Z,100462.38
2018-12-17T03:34:54.539Z,100468.29
2018-12-17T03:37:22.025Z,100471.38
2018-12-17T03:39:49.531Z,100469.80
2018-12-17T03:42:16.995Z,100470.22
2018-12-17T03:44:44.481Z,100473.06
2018-12-17T03:47:11.935Z,100476.32
2018-12-17T03:49:40.340Z,100478.52
2018-12-17T03:52:08.047Z,100476.89
2018-12-17T03:54:35.498Z,100479.78
2018-12-17T03:57:03.886Z,100480.52
2018-12-17T03:59:31.457Z,100478.84
2018-12-17T04:01:59.633Z,100489.43
2018-12-17T04:04:27.211Z,100494.09
2018-12-17T04:06:54.679Z,100497.50
2018-12-17T04:09:22.134Z,100496.39
2018-12-17T04:11:49.648Z,100500.04
2018-12-17T04:14:17.123Z,100505.95
2018-12-17T04:16:44.707Z,100509.26
2018-12-17T04:19:12.194Z,100514.25
2018-12-17T04:21:39.833Z,100515.20
2018-12-17T04:24:07.341Z,100516.97
2018-12-17T04:26:34.834Z,100523.64
2018-12-17T04:29:06.754Z,100526.16
2018-12-17T04:31:31.837Z,100531.20
2018-12-17T04:33:59.879Z,100531.63
2018-12-17T04:36:27.412Z,100535.87
2018-12-17T04:38:54.902Z,100548.88
2018-12-17T04:41:22.360Z,100548.14
2018-12-17T04:43:49.853Z,100549.20
2018-12-17T04:46:18.225Z,100553.46
2018-12-17T04:48:45.713Z,100554.35
2018-12-17T04:51:13.202Z,100561.16
2018-12-17T04:53:40.693Z,100559.44
2018-12-17T04:56:08.166Z,100562.78
2018-12-17T04:58:37.227Z,100563.52
2018-12-17T05:01:04.804Z,100564.15
2018-12-17T05:03:32.309Z,100571.72
2018-12-17T05:05:59.825Z,100571.72
2018-12-17T05:08:27.320Z,100570.51
2018-12-17T05:10:54.840Z,100576.77
2018-12-17T05:13:22.340Z,100579.74
2018-12-17T05:15:49.807Z,100586.94
2018-12-17T05:18:17.291Z,100592.71
2018-12-17T05:20:44.736Z,100593.14
2018-12-17T05:23:12.269Z,100601.96
2018-12-17T05:25:39.768Z,100599.32
2018-12-17T05:28:07.345Z,100608.25
2018-12-17T05:30:34.854Z,100610.05
2018-12-17T05:33:03.065Z,100615.55
2018-12-17T05:35:30.522Z,100621.48
2018-12-17T05:37:58.871Z,100619.33
2018-12-17T05:40:26.325Z,100620.95
2018-12-17T05:42:53.789Z,100628.52
2018-12-17T05:45:21.305Z,100633.08
2018-12-17T05:47:48.751Z,100635.70
2018-12-17T05:50:16.250Z,100642.00
2018-12-17T05:52:43.820Z,100640.27
2018-12-17T05:55:11.295Z,100641.55
2018-12-17T05:57:38.828Z,100646.20
2018-12-17T06:00:07.724Z,100649.45
2018-12-17T06:02:35.257Z,100648.67
2018-12-17T06:05:02.783Z,100653.34
2018-12-17T06:07:30.946Z,100647.05
2018-12-17T06:09:58.407Z,100656.80
2018-12-17T06:12:25.888Z,100656.30
2018-12-17T06:14:53.477Z,100658.08
2018-12-17T06:17:20.957Z,100655.93
2018-12-17T06:19:48.423Z,100657.19
2018-12-17T06:22:15.865Z,100666.42
2018-12-17T06:24:43.325Z,100668.10
2018-12-17T06:27:11.368Z,100671.88
2018-12-17T06:29:38.839Z,100677.34
2018-12-17T06:32:06.716Z,100674.09
2018-12-17T06:34:34.446Z,100670.25
2018-12-17T06:37:01.883Z,100677.77
2018-12-17T06:39:29.342Z,100683.70
2018-12-17T06:41:56.813Z,100678.98
2018-12-17T06:44:24.271Z,100680.17
2018-12-17T06:46:51.714Z,100684.38
2018-12-17T06:49:19.182Z,100687.98
2018-12-17T06:51:46.923Z,100693.39
2018-12-17T06:54:14.400Z,100694.66
2018-12-17T06:56:42.430Z,100696.69
2018-12-17T06:59:09.874Z,100690.76
2018-12-17T07:01:37.416Z,100692.08
2018-12-17T07:04:04.923Z,100697.59
2018-12-17T07:06:32.392Z,100695.59
2018-12-17T07:08:59.853Z,100706.11
2018-12-17T07:11:27.338Z,100709.45
2018-12-17T07:13:54.801Z,100703.64
2018-12-17T07:16:22.265Z,100708.69
2018-12-17T07:18:50.195Z,100707.73
2018-12-17T07:21:17.667Z,100710.25
2018-12-17T07:23:45.134Z,100707.89
2018-12-17T07:26:12.600Z,100709.16
2018-12-17T07:28:40.465Z,100716.02
2018-12-17T07:31:07.931Z,100715.22
2018-12-17T07:33:35.444Z,100716.34
2018-12-17T07:36:02.892Z,100719.73
2018-12-17T07:38:31.119Z,100717.64
2018-12-17T07:40:58.830Z,100718.54
2018-12-17T07:43:26.277Z,100717.59
2018-12-17T07:45:53.789Z,100733.76
2018-12-17T07:48:21.245Z,100731.38
2018-12-17T07:50:48.720Z,100731.47
2018-12-17T07:53:16.638Z,100737.31
2018-12-17T07:55:44.088Z,100738.44
2018-12-17T07:58:11.533Z,100741.97
2018-12-17T08:00:39.483Z,100747.91
2018-12-17T08:03:07.646Z,100751.70
2018-12-17T08:05:35.956Z,100749.28
2018-12-17T08:08:03.518Z,100748.38
2018-12-17T08:10:30.964Z,100746.70
2018-12-17T08:12:58.958Z,100753.95
2018-12-17T08:15:26.431Z,100757.00
2018-12-17T08:18:05.817Z,100759.72
2018-12-17T08:20:35.050Z,100762.61
2018-12-17T08:23:02.514Z,100758.16
2018-12-17T08:25:29.980Z,100763.50
2018-12-17T08:27:57.433Z,100763.25
2018-12-17T08:30:24.933Z,100765.48
2018-12-17T08:32:52.389Z,100764.68
2018-12-17T08:35:19.852Z,100766.78
2018-12-17T08:37:47.349Z,100766.36
2018-12-17T08:40:14.827Z,100773.62
2018-12-17T08:42:42.298Z,100768.20
2018-12-17T08:45:10.754Z,100770.84
2018-12-17T08:47:38.202Z,100779.41
2018-12-17T08:50:05.769Z,100779.09
2018-12-17T08:52:33.230Z,100781.66
2018-12-17T08:55:00.794Z,100781.27
2018-12-17T08:57:28.245Z,100780.90
2018-12-17T08:59:55.684Z,100783.89
2018-12-17T09:02:23.874Z,100783.15
2018-12-17T09:04:51.351Z,100787.30
2018-12-17T09:07:18.940Z,100785.14
2018-12-17T09:09:46.388Z,100789.36
2018-12-17T09:12:13.865Z,100785.67
2018-12-17T09:14:41.342Z,100787.36
2018-12-17T09:17:08.816Z,100788.67
2018-12-17T09:19:36.261Z,100798.02
2018-12-17T09:22:04.221Z,100798.50
2018-12-17T09:24:33.265Z,100798.09
2018-12-17T09:27:00.740Z,100800.88
2018-12-17T09:29:28.181Z,100802.81
2018-12-17T09:31:55.627Z,100802.59
2018-12-17T09:34:23.112Z,100801.02
2018-12-17T09:36:51.273Z,100800.32
2018-12-17T09:39:18.845Z,100800.05
2018-12-17T09:41:46.341Z,100799.30
2018-12-17T09:44:13.816Z,100806.08
2018-12-17T09:46:41.451Z,100801.52
2018-12-17T09:49:08.952Z,100803.75
2018-12-17T09:51:36.422Z,100803.44
2018-12-17T09:54:04.513Z,100810.36
2018-12-17T09:56:31.973Z,100813.77
2018-12-17T09:59:02.286Z,100812.09
2018-12-17T10:01:29.733Z,100819.67
2018-12-17T10:03:57.211Z,100815.88
2018-12-17T10:06:24.668Z,100819.28
2018-12-17T10:08:52.127Z,100816.72
2018-12-17T10:11:19.574Z,100821.20
2018-12-17T10:13:48.587Z,100827.14
2018-12-17T10:16:16.096Z,100822.00
2018-12-17T10:18:43.534Z,100824.61
2018-12-17T10:21:10.990Z,100819.43
2018-12-17T10:23:39.297Z,100816.89
2018-12-17T10:26:07.407Z,100822.83
2018-12-17T10:28:34.845Z,100816.58
2018-12-17T10:31:02.401Z,100821.62
2018-12-17T10:33:29.855Z,100815.40
2018-12-17T10:35:57.320Z,100813.77
2018-12-17T10:38:27.660Z,100812.41
2018-12-17T10:40:55.248Z,100812.93
2018-12-17T10:43:23.166Z,100806.42
2018-12-17T10:45:50.647Z,100802.27
2018-12-17T10:48:18.090Z,100796.16
2018-12-17T10:50:45.533Z,100797.95
2018-12-17T10:53:12.991Z,100799.75
2018-12-17T10:55:40.460Z,100798.92
2018-12-17T10:58:07.975Z,100803.64
2018-12-17T11:00:41.052Z,100806.70
2018-12-17T11:03:10.453Z,100814.43
2018-12-17T11:05:39.656Z,100811.69
2018-12-17T11:08:07.557Z,100812.23
2018-12-17T11:10:35.352Z,100808.98
2018-12-17T11:13:02.806Z,100806.19
2018-12-17T11:15:30.305Z,100800.34
2018-12-17T11:17:58.412Z,100802.09
2018-12-17T11:20:25.867Z,100801.71
2018-12-17T11:22:53.324Z,100808.50
2018-12-17T11:25:21.269Z,100805.51
2018-12-17T11:27:48.751Z,100804.70
2018-12-17T11:30:16.812Z,100806.47
2018-12-17T11:32:44.292Z,100801.59
2018-12-17T11:35:11.792Z,100795.77
2018-12-17T11:37:39.255Z,100796.64
2018-12-17T11:40:06.948Z,100793.27
2018-12-17T11:42:34.445Z,100793.20
2018-12-17T11:45:01.963Z,100797.84
2018-12-17T11:47:29.470Z,100803.75
2018-12-17T11:49:57.207Z,100806.43
2018-12-17T11:52:24.762Z,100809.00
2018-12-17T11:54:52.218Z,100809.38
2018-12-17T11:57:31.365Z,100805.55
2018-12-17T11:59:58.821Z,100806.39
2018-12-17T12:02:26.269Z,100808.72
2018-12-17T12:04:53.752Z,100812.41
2018-12-17T12:07:21.228Z,100812.44
2018-12-17T12:09:48.801Z,100809.36
2018-12-17T12:12:16.298Z,100810.20
2018-12-17T12:14:44.130Z,100806.84
2018-12-17T12:17:11.651Z,100815.42
2018-12-17T12:19:39.193Z,100804.39
2018-12-17T12:22:06.691Z,100799.79
2018-12-17T12:24:34.129Z,100795.58
2018-12-17T12:27:02.600Z,100792.63
2018-12-17T12:29:30.097Z,100793.50
2018-12-17T12:31:57.633Z,100795.20
2018-12-17T12:34:26.461Z,100799.33
2018-12-17T12:36:54.086Z,100800.55
2018-12-17T12:39:21.559Z,100802.78
2018-12-17T12:41:49.126Z,100802.66
2018-12-17T12:44:17.549Z,100803.93
2018-12-17T12:46:45.339Z,100799.83
2018-12-17T12:49:12.882Z,100799.87
2018-12-17T12:51:40.380Z,100802.55
2018-12-17T12:54:07.936Z,100803.13
2018-12-17T12:56:37.048Z,100801.52
2018-12-17T12:59:05.616Z,100801.25
2018-12-17T13:01:33.139Z,100808.67
2018-12-17T13:04:00.659Z,100807.06
2018-12-17T13:06:28.240Z,100812.27
2018-12-17T13:08:55.782Z,100815.45
2018-12-17T13:11:23.675Z,100819.00
2018-12-17T13:13:54.183Z,100813.09
2018-12-17T13:16:21.735Z,100816.37
2018-12-17T13:18:49.263Z,100813.09
2018-12-17T13:21:16.859Z,100818.31
2018-12-17T13:23:44.626Z,100820.06
2018-12-17T13:26:12.184Z,100820.45
2018-12-17T13:28:39.787Z,100816.69
2018-12-17T13:31:14.382Z,100817.11
2018-12-17T13:33:37.108Z,100824.32
2018-12-17T13:36:04.628Z,100817.53
2018-12-17T13:38:32.347Z,100825.97
2018-12-17T13:41:00.026Z,100821.58
2018-12-17T13:43:27.592Z,100826.50
2018-12-17T13:45:55.273Z,100829.42
2018-12-17T13:48:22.889Z,100836.06
2018-12-17T13:50:50.987Z,100841.50
2018-12-17T13:53:24.566Z,100844.84
2018-12-17T13:55:52.139Z,100844.04
2018-12-17T13:58:19.768Z,100844.04
2018-12-17T14:00:47.356Z,100843.19
2018-12-17T14:03:14.912Z,100841.96
2018-12-17T14:05:42.453Z,100839.92
2018-12-17T14:08:10.038Z,100842.77
2018-12-17T14:10:43.241Z,100848.22
2018-12-17T14:13:10.889Z,100851.55
2018-12-17T14:15:44.073Z,100848.60
2018-12-17T14:21:28.463Z,100854.85
2018-12-17T14:23:56.023Z,100853.93
2018-12-17T14:26:23.556Z,100859.84
2018-12-17T14:28:51.134Z,100867.39
2018-12-17T14:31:18.746Z,100873.33
2018-12-17T14:33:49.416Z,100867.00
2018-12-17T14:36:16.969Z,100872.48
2018-12-17T14:38:44.540Z,100875.90
2018-12-17T14:41:12.045Z,100876.28
2018-12-17T14:43:39.776Z,100878.39
2018-12-17T14:46:07.443Z,100877.16
2018-12-17T14:48:35.097Z,100874.63
2018-12-17T14:51:02.999Z,100874.67
2018-12-17T14:53:30.621Z,100878.85
2018-12-17T14:55:58.167Z,100882.61
2018-12-17T14:58:25.840Z,100881.73
2018-12-17T15:00:53.515Z,100890.16
2018-12-17T15:03:21.184Z,100891.34
2018-12-17T15:05:48.733Z,100889.31
2018-12-17T15:08:16.306Z,100894.75
2018-12-17T15:10:44.050Z,100893.83
2018-12-17T15:13:11.611Z,100895.09
2018-12-17T15:15:39.118Z,100905.22
2018-12-17T15:18:07.181Z,100909.81
2018-12-17T15:20:34.816Z,100915.26
2018-12-17T15:23:02.447Z,100926.22
2018-12-17T15:25:29.968Z,100928.33
2018-12-17T15:27:57.485Z,100934.19
2018-12-17T15:30:25.129Z,100935.83
2018-12-17T15:32:52.656Z,100943.04
2018-12-17T15:35:20.523Z,100949.27
2018-12-17T15:37:48.119Z,100950.45
2018-12-17T15:40:15.745Z,100949.48
2018-12-17T15:42:43.213Z,100954.95
2018-12-17T15:45:10.920Z,100959.41
2018-12-17T15:47:39.183Z,100955.11
2018-12-17T15:50:06.857Z,100955.05
2018-12-17T15:52:34.448Z,100965.68
2018-12-17T15:55:02.544Z,100961.42
2018-12-17T15:57:30.443Z,100965.69
2018-12-17T15:59:58.016Z,100958.11
2018-12-17T16:02:26.595Z,100960.54
2018-12-17T16:04:54.144Z,100966.57
2018-12-17T16:07:21.803Z,100972.11
2018-12-17T16:09:55.092Z,100968.64
2018-12-17T16:12:22.777Z,100972.91
2018-12-17T16:14:50.430Z,100972.44
2018-12-17T16:17:18.073Z,100975.42
2018-12-17T16:19:46.475Z,100972.00
2018-12-17T16:22:14.062Z,100974.59
2018-12-17T16:24:41.632Z,100972.02
2018-12-17T16:27:10.899Z,100975.38
2018-12-17T16:29:38.453Z,100966.95
2018-12-17T16:32:07.454Z,100969.20
2018-12-17T16:34:35.028Z,100976.31
2018-12-17T16:37:03.496Z,100973.38
2018-12-17T16:39:31.253Z,100983.06
2018-12-17T16:41:58.900Z,100986.48
2018-12-17T16:44:27.684Z,100986.91
2018-12-17T16:46:55.256Z,100987.42
2018-12-17T16:49:23.137Z,100994.20
2018-12-17T16:51:50.748Z,100995.98
2018-12-17T16:54:24.480Z,100992.58
2018-12-17T16:56:52.886Z,100997.25
2018-12-17T16:59:20.497Z,101001.89
2018-12-17T17:01:48.052Z,101001.47
2018-12-17T17:04:16.654Z,101004.45
2018-12-17T17:06:44.317Z,101003.63
2018-12-17T17:09:11.961Z,101005.78
2018-12-17T17:11:39.612Z,101007.55
2018-12-17T17:14:08.557Z,101008.81
2018-12-17T17:16:36.360Z,101015.61
2018-12-17T17:19:03.889Z,101013.55
2018-12-17T17:21:31.495Z,101020.77
2018-12-17T17:23:58.990Z,101015.31
2018-12-17T17:26:26.993Z,101022.11
2018-12-17T17:28:55.496Z,101022.55
2018-12-17T17:31:30.434Z,101023.75
2018-12-17T17:33:58.663Z,101024.19
2018-12-17T17:36:27.821Z,101028.40
2018-12-17T17:38:55.503Z,101033.50
2018-12-17T17:41:23.056Z,101032.61
2018-12-17T17:43:50.701Z,101038.99
2018-12-17T17:46:18.473Z,101038.99
2018-12-17T17:48:46.720Z,101040.63
2018-12-17T17:51:14.397Z,101047.37
2018-12-17T17:53:42.049Z,101053.28
2018-12-17T17:56:09.689Z,101053.66
2018-12-17T17:58:37.637Z,101053.75
2018-12-17T18:01:05.251Z,101057.08
2018-12-17T18:03:32.781Z,101061.30
2018-12-17T18:06:01.115Z,101052.90
2018-12-17T18:08:28.614Z,101064.30
2018-12-17T18:10:56.298Z,101066.02
2018-12-17T18:13:24.063Z,101062.23
2018-12-17T18:15:51.585Z,101063.20
2018-12-17T18:18:19.217Z,101067.05
2018-12-17T18:20:46.753Z,101077.27
2018-12-17T18:23:14.921Z,101079.52
2018-12-17T18:25:42.419Z,101077.41
2018-12-17T18:28:09.957Z,101083.83
2018-12-17T18:30:37.481Z,101089.48
2018-12-17T18:33:05.049Z,101090.34
2018-12-17T18:35:32.605Z,101090.34
2018-12-17T18:38:00.110Z,101100.97
2018-12-17T18:40:28.348Z,101099.75
2018-12-17T18:42:55.892Z,101104.14
2018-12-17T18:45:23.392Z,101108.96
2018-12-17T18:47:51.393Z,101112.84
2018-12-17T18:50:19.028Z,101110.41
2018-12-17T18:52:46.576Z,101112.17
2018-12-17T18:55:14.409Z,101115.27
2018-12-17T18:57:41.940Z,101106.86
2018-12-17T19:00:10.592Z,101113.69
2018-12-17T19:02:38.195Z,101114.16
2018-12-17T19:05:06.184Z,101113.73
2018-12-17T19:07:33.820Z,101117.20
2018-12-17T19:10:01.609Z,101111.36
2018-12-17T19:12:29.235Z,101122.38
2018-12-17T19:14:57.563Z,101117.31
2018-12-17T19:17:25.056Z,101122.89
2018-12-17T19:19:52.640Z,101122.47
2018-12-17T19:22:20.176Z,101122.97
2018-12-17T19:24:49.494Z,101121.28
2018-12-17T19:27:17.857Z,101128.46
2018-12-17T19:29:45.438Z,101126.42
2018-12-17T19:32:12.928Z,101126.05
2018-12-17T19:34:40.871Z,101133.73
2018-12-17T19:37:09.038Z,101139.27
2018-12-17T19:39:36.615Z,101135.45
2018-12-17T19:42:07.574Z,101136.77
2018-12-17T19:44:36.011Z,101141.41
2018-12-17T19:47:03.569Z,101149.86
2018-12-17T19:49:31.130Z,101147.75
2018-12-17T19:51:58.671Z,101151.13
2018-12-17T19:54:26.175Z,101156.63
2018-12-17T19:56:56.681Z,101156.31
2018-12-17T19:59:24.336Z,101155.05
2018-12-17T20:01:51.878Z,101161.05
2018-12-17T20:04:19.605Z,101161.05
2018-12-17T20:06:47.274Z,101163.16
2018-12-17T20:09:15.099Z,101168.23
2018-12-17T20:11:42.588Z,101165.73
2018-12-17T20:14:10.116Z,101172.95
2018-12-17T20:16:37.642Z,101168.77
2018-12-17T20:19:05.216Z,101170.84
2018-12-17T20:21:32.789Z,101174.66
2018-12-17T20:24:00.347Z,101171.30
2018-12-17T20:26:28.172Z,101171.73
2018-12-17T20:28:55.739Z,101179.30
2018-12-17T20:31:23.320Z,101179.30
2018-12-17T20:33:51.404Z,101180.56
2018-12-17T20:36:18.911Z,101186.48
2018-12-17T20:38:48.120Z,101181.38
2018-12-17T20:41:15.610Z,101188.98
2018-12-17T20:43:43.646Z,101180.56
2018-12-17T20:46:11.161Z,101189.86
2018-12-17T20:48:38.686Z,101190.41
2018-12-17T20:51:06.422Z,101200.94
2018-12-17T20:53:33.996Z,101197.17
2018-12-17T20:56:01.521Z,101204.70
2018-12-17T20:58:29.894Z,101200.51
2018-12-17T21:00:57.553Z,101200.51
2018-12-17T21:03:26.008Z,101206.01
2018-12-17T21:05:53.979Z,101202.66
2018-12-17T21:08:28.379Z,101199.63
2018-12-17T21:11:04.655Z,101197.44
2018-12-17T21:13:32.452Z,101205.97
2018-12-17T21:15:59.993Z,101210.16
2018-12-17T21:18:27.551Z,101208.51
2018-12-17T21:20:55.129Z,101208.46
2018-12-17T21:23:23.042Z,101219.45
2018-12-17T21:25:50.704Z,101211.04
2018-12-17T21:28:18.828Z,101211.05
2018-12-17T21:30:46.335Z,101218.19
2018-12-17T21:33:13.836Z,101224.11
2018-12-17T21:35:41.499Z,101216.50
2018-12-17T21:38:09.314Z,101214.47
2018-12-17T21:40:36.848Z,101214.47
2018-12-17T21:43:04.429Z,101218.73
2018-12-17T21:45:32.067Z,101223.00
2018-12-17T21:47:59.608Z,101216.62
2018-12-17T21:50:27.127Z,101214.50
2018-12-17T21:52:54.634Z,101221.31
2018-12-17T21:55:22.270Z,101223.42
2018-12-17T21:57:50.900Z,101223.87
2018-12-17T22:00:18.409Z,101228.92
2018-12-17T22:02:45.876Z,101225.95
2018-12-17T22:05:14.045Z,101221.31
2018-12-17T22:07:42.243Z,101231.45
2018-12-17T22:10:12.820Z,101230.19
2018-12-17T22:12:40.847Z,101227.69
2018-12-17T22:15:09.001Z,101220.88
2018-12-17T22:17:36.478Z,101226.00
2018-12-17T22:20:05.216Z,101230.77
2018-12-17T22:22:32.721Z,101231.91
2018-12-17T22:25:00.192Z,101239.52
2018-12-17T22:27:28.355Z,101236.95
2018-12-17T22:29:55.851Z,101239.06
2018-12-17T22:32:23.309Z,101246.25
2018-12-17T22:34:50.849Z,101248.83
2018-12-17T22:37:18.361Z,101249.29
2018-12-17T22:39:45.898Z,101254.36
2018-12-17T22:42:14.435Z,101266.55
2018-12-17T22:44:42.291Z,101258.93
2018-12-17T22:47:09.963Z,101264.42
2018-12-17T22:49:37.735Z,101269.50
2018-12-17T22:52:05.230Z,101267.47
2018-12-17T22:54:32.733Z,101270.42
2018-12-17T22:57:01.202Z,101271.70
2018-12-17T22:59:28.731Z,101274.19
2018-12-17T23:01:56.170Z,101276.34
2018-12-17T23:04:25.166Z,101281.03
2018-12-17T23:06:52.752Z,101278.47
2018-12-17T23:09:19.873Z,101279.39
2018-12-17T23:12:06.349Z,101280.58
2018-12-17T23:14:45.873Z,101278.80
2018-12-17T23:17:25.479Z,101278.03
2018-12-17T23:19:53.354Z,101278.84
2018-12-17T23:22:20.939Z,101283.66
2018-12-17T23:24:48.617Z,101276.85
2018-12-17T23:27:16.173Z,101276.81
2018-12-17T23:29:43.649Z,101272.11
2018-12-17T23:32:11.112Z,101278.54
2018-12-17T23:34:38.572Z,101277.31
2018-12-17T23:37:13.030Z,101277.70
2018-12-17T23:39:40.512Z,101273.39
2018-12-17T23:42:07.984Z,101275.54
2018-12-17T23:44:36.798Z,101276.34
2018-12-17T23:47:04.363Z,101278.50
2018-12-17T23:49:31.848Z,101283.15
2018-12-17T23:51:59.381Z,101275.46
2018-12-17T23:54:26.967Z,101275.16
2018-12-17T23:56:54.504Z,101278.58
2018-12-17T23:59:21.948Z,101275.58
